createdAt,value
2018-10-17T00:00:17.696Z,98795.48
2018-10-17T00:05:19.956Z,98802.10
2018-10-17T00:10:22.277Z,98798.24
2018-10-17T00:15:24.565Z,98796.09
2018-10-17T00:20:26.856Z,98799.06
2018-10-17T00:25:29.217Z,98797.02
2018-10-17T00:30:31.477Z,98793.84
2018-10-17T00:35:33.770Z,98799.22
2018-10-17T00:40:36.120Z,98792.69
2018-10-17T00:45:38.321Z,98794.81
2018-10-17T00:50:40.629Z,98791.13
2018-10-17T00:55:43.125Z,98788.40
2018-10-17T01:00:45.380Z,98790.61
2018-10-17T01:05:47.628Z,98798.88
2018-10-17T01:10:49.897Z,98786.45
2018-10-17T01:15:52.146Z,98788.28
2018-10-17T01:20:54.441Z,98788.90
2018-10-17T01:25:56.787Z,98785.02
2018-10-17T01:30:59.061Z,98789.81
2018-10-17T01:36:01.354Z,98787.45
2018-10-17T01:41:04.008Z,98789.37
2018-10-17T01:46:06.184Z,98786.72
2018-10-17T01:51:08.528Z,98779.07
2018-10-17T01:56:10.837Z,98780.80
2018-10-17T02:01:13.226Z,98777.54
2018-10-17T02:06:15.437Z,98779.53
2018-10-17T02:11:17.785Z,98769.23
2018-10-17T02:16:19.988Z,98775.56
2018-10-17T02:21:22.241Z,98776.77
2018-10-17T02:26:24.587Z,98773.23
2018-10-17T02:31:26.868Z,98783.63
2018-10-17T02:36:29.180Z,98778.33
2018-10-17T02:41:31.480Z,98768.94
2018-10-17T02:46:33.824Z,98768.65
2018-10-17T02:51:36.092Z,98774.53
2018-10-17T02:56:38.429Z,98773.55
2018-10-17T03:01:40.726Z,98782.98
2018-10-17T03:06:43.072Z,98779.42
2018-10-17T03:11:45.341Z,98777.14
2018-10-17T03:16:47.626Z,98773.63
2018-10-17T03:21:49.987Z,98773.70
2018-10-17T03:26:52.319Z,98779.36
2018-10-17T03:31:54.636Z,98779.10
2018-10-17T03:36:56.999Z,98794.10
2018-10-17T03:41:59.270Z,98793.36
2018-10-17T03:47:01.629Z,98783.67
2018-10-17T03:52:04.522Z,98787.34
2018-10-17T03:57:07.317Z,98794.57
2018-10-17T04:02:09.680Z,98797.55
2018-10-17T04:07:13.098Z,98803.45
2018-10-17T04:12:15.658Z,98801.88
2018-10-17T04:17:18.094Z,98809.52
2018-10-17T04:22:20.537Z,98808.01
2018-10-17T04:27:22.892Z,98810.02
2018-10-17T04:32:25.288Z,98802.00
2018-10-17T04:37:27.605Z,98801.23
2018-10-17T04:42:30.720Z,98801.80
2018-10-17T04:47:33.176Z,98796.78
2018-10-17T04:52:35.488Z,98800.75
2018-10-17T04:57:37.939Z,98801.94
2018-10-17T05:02:41.731Z,98807.09
2018-10-17T05:07:44.081Z,98807.42
2018-10-17T05:12:46.434Z,98808.70
2018-10-17T05:17:48.783Z,98810.52
2018-10-17T05:22:51.679Z,98814.69
2018-10-17T05:27:54.087Z,98826.87
2018-10-17T05:32:56.465Z,98826.94
2018-10-17T05:37:58.905Z,98825.05
2018-10-17T05:43:01.275Z,98822.91
2018-10-17T05:48:03.648Z,98825.82
2018-10-17T05:53:06.101Z,98822.34
2018-10-17T05:58:08.685Z,98826.25
2018-10-17T06:03:11.063Z,98835.17
2018-10-17T06:08:13.447Z,98829.33
2018-10-17T06:13:15.791Z,98827.25
2018-10-17T06:18:18.173Z,98834.22
2018-10-17T06:23:20.528Z,98826.91
2018-10-17T06:28:22.972Z,98822.54
2018-10-17T06:33:25.270Z,98833.10
2018-10-17T06:38:27.589Z,98829.55
2018-10-17T06:43:30.052Z,98831.56
2018-10-17T06:48:32.481Z,98831.65
2018-10-17T06:53:34.790Z,98833.51
2018-10-17T06:58:37.145Z,98827.47
2018-10-17T07:03:39.755Z,98824.77
2018-10-17T07:08:42.073Z,98820.86
2018-10-17T07:13:44.421Z,98827.94
2018-10-17T07:18:46.767Z,98827.55
2018-10-17T07:23:49.103Z,98831.54
2018-10-17T07:28:52.321Z,98830.31
2018-10-17T07:33:54.614Z,98838.88
2018-10-17T07:38:56.915Z,98842.32
2018-10-17T07:43:59.220Z,98847.12
2018-10-17T07:49:01.579Z,98841.44
2018-10-17T07:54:03.967Z,98841.03
2018-10-17T07:59:06.323Z,98845.11
2018-10-17T08:04:08.685Z,98845.86
2018-10-17T08:09:11.738Z,98843.31
2018-10-17T08:14:14.197Z,98840.66
2018-10-17T08:19:16.403Z,98838.48
2018-10-17T08:24:18.827Z,98843.11
2018-10-17T08:29:21.216Z,98842.45
2018-10-17T08:34:23.529Z,98840.06
2018-10-17T08:39:25.837Z,98836.10
2018-10-17T08:44:29.000Z,98847.42
2018-10-17T08:49:31.381Z,98854.84
2018-10-17T08:54:33.673Z,98849.73
2018-10-17T08:59:36.003Z,98845.41
2018-10-17T09:04:38.328Z,98848.60
2018-10-17T09:09:40.626Z,98849.33
2018-10-17T09:14:42.932Z,98845.64
2018-10-17T09:19:45.395Z,98835.88
2018-10-17T09:24:47.605Z,98836.31
2018-10-17T09:29:49.957Z,98832.06
2018-10-17T09:34:53.256Z,98830.25
2018-10-17T09:39:55.640Z,98827.85
2018-10-17T09:44:57.940Z,98821.73
2018-10-17T09:50:00.284Z,98814.64
2018-10-17T09:55:02.743Z,98805.06
2018-10-17T10:00:11.255Z,98807.32
2018-10-17T10:05:13.533Z,98810.14
2018-10-17T10:10:15.835Z,98805.46
2018-10-17T10:15:18.150Z,98804.48
2018-10-17T10:20:20.805Z,98801.82
2018-10-17T10:25:23.194Z,98800.08
2018-10-17T10:30:25.582Z,98795.72
2018-10-17T10:35:28.111Z,98795.78
2018-10-17T10:40:30.481Z,98785.58
2018-10-17T10:45:32.928Z,98784.23
2018-10-17T10:50:35.092Z,98776.84
2018-10-17T10:55:37.425Z,98773.24
2018-10-17T11:00:40.095Z,98773.41
2018-10-17T11:05:42.603Z,98762.86
2018-10-17T11:10:44.793Z,98760.23
2018-10-17T11:15:47.095Z,98756.98
2018-10-17T11:20:49.406Z,98752.94
2018-10-17T11:25:51.723Z,98748.79
2018-10-17T11:30:54.112Z,98748.30
2018-10-17T11:35:56.438Z,98743.25
2018-10-17T11:40:58.743Z,98739.90
2018-10-17T11:46:01.054Z,98732.89
2018-10-17T11:51:03.465Z,98731.02
2018-10-17T11:56:05.775Z,98730.43
2018-10-17T12:01:08.197Z,98721.07
2018-10-17T12:06:10.645Z,98717.90
2018-10-17T12:11:13.116Z,98708.90
2018-10-17T12:16:15.426Z,98714.06
2018-10-17T12:21:17.854Z,98710.80
2018-10-17T12:26:20.089Z,98705.42
2018-10-17T12:31:22.476Z,98701.77
2018-10-17T12:36:24.810Z,98702.03
2018-10-17T12:41:27.180Z,98699.89
2018-10-17T12:46:29.485Z,98700.45
2018-10-17T12:51:31.775Z,98700.39
2018-10-17T12:56:34.069Z,98699.75
2018-10-17T13:01:36.577Z,98685.55
2018-10-17T13:06:39.090Z,98680.45
2018-10-17T13:11:41.457Z,98679.65
2018-10-17T13:16:43.729Z,98680.17
2018-10-17T13:21:46.060Z,98682.45
2018-10-17T13:26:48.437Z,98674.77
2018-10-17T13:31:50.851Z,98667.72
2018-10-17T13:36:53.195Z,98666.12
2018-10-17T13:41:55.520Z,98661.15
2018-10-17T13:46:57.882Z,98659.91
2018-10-17T13:52:00.164Z,98653.05
2018-10-17T13:57:02.584Z,98641.63
2018-10-17T14:02:04.985Z,98650.44
2018-10-17T14:07:07.378Z,98646.13
2018-10-17T14:12:09.803Z,98651.77
2018-10-17T14:17:13.076Z,98653.86
2018-10-17T14:22:15.418Z,98649.84
2018-10-17T14:27:17.772Z,98648.01
2018-10-17T14:32:20.430Z,98651.87
2018-10-17T14:37:22.751Z,98653.22
2018-10-17T14:42:25.213Z,98650.66
2018-10-17T14:47:27.560Z,98648.18
2018-10-17T14:52:29.933Z,98647.69
2018-10-17T14:57:32.326Z,98644.58
2018-10-17T15:02:34.716Z,98644.66
2018-10-17T15:07:37.137Z,98650.02
2018-10-17T15:12:39.509Z,98651.95
2018-10-17T15:17:41.834Z,98654.20
2018-10-17T15:22:44.318Z,98659.45
2018-10-17T15:27:46.750Z,98660.80
2018-10-17T15:32:49.324Z,98662.91
2018-10-17T15:37:52.368Z,98666.02
2018-10-17T15:42:54.869Z,98661.38
2018-10-17T15:47:57.291Z,98664.16
2018-10-17T15:52:59.785Z,98667.22
2018-10-17T15:58:02.360Z,98663.84
2018-10-17T16:03:04.816Z,98665.75
2018-10-17T16:08:07.192Z,98664.26
2018-10-17T16:13:09.508Z,98663.58
2018-10-17T16:18:12.258Z,98672.11
2018-10-17T16:23:14.639Z,98673.58
2018-10-17T16:28:18.926Z,98672.69
2018-10-17T16:33:22.209Z,98680.20
2018-10-17T16:38:24.591Z,98686.75
2018-10-17T16:43:26.908Z,98685.66
2018-10-17T16:48:29.913Z,98694.98
2018-10-17T16:53:32.219Z,98702.88
2018-10-17T16:58:34.741Z,98708.77
2018-10-17T17:03:37.121Z,98712.53
2018-10-17T17:08:39.497Z,98717.88
2018-10-17T17:13:41.866Z,98717.28
2018-10-17T17:18:44.657Z,98715.69
2018-10-17T17:23:47.044Z,98723.00
2018-10-17T17:28:50.493Z,98727.77
2018-10-17T17:33:52.846Z,98727.95
2018-10-17T17:38:55.189Z,98732.23
2018-10-17T17:43:57.530Z,98730.23
2018-10-17T17:48:59.880Z,98734.03
2018-10-17T17:54:02.210Z,98734.53
2018-10-17T17:59:04.941Z,98742.44
2018-10-17T18:04:07.417Z,98737.86
2018-10-17T18:09:11.114Z,98742.77
2018-10-17T18:14:13.547Z,98747.36
2018-10-17T18:19:15.887Z,98749.34
2018-10-17T18:24:18.308Z,98752.05
2018-10-17T18:29:20.612Z,98747.51
2018-10-17T18:34:22.998Z,98752.70
2018-10-17T18:39:25.384Z,98751.84
2018-10-17T18:44:27.808Z,98761.02
2018-10-17T18:49:30.112Z,98759.53
2018-10-17T18:54:32.466Z,98767.42
2018-10-17T18:59:34.799Z,98773.17
2018-10-17T19:04:37.196Z,98767.86
2018-10-17T19:09:41.861Z,98774.80
2018-10-17T19:14:44.199Z,98779.00
2018-10-17T19:19:46.599Z,98781.67
2018-10-17T19:24:49.099Z,98784.30
2018-10-17T19:29:51.368Z,98791.67
2018-10-17T19:34:56.088Z,98800.56
2018-10-17T19:39:58.418Z,98806.63
2018-10-17T19:45:00.749Z,98801.93
2018-10-17T19:50:03.305Z,98810.00
2018-10-17T19:55:06.685Z,98811.61
2018-10-17T20:00:11.153Z,98812.09
2018-10-17T20:05:13.546Z,98811.85
2018-10-17T20:10:15.962Z,98814.52
2018-10-17T20:15:18.411Z,98813.03
2018-10-17T20:20:20.666Z,98811.98
2018-10-17T20:25:23.016Z,98811.39
2018-10-17T20:30:25.334Z,98810.05
2018-10-17T20:35:27.695Z,98816.23
2018-10-17T20:40:29.996Z,98810.27
2018-10-17T20:45:32.293Z,98807.96
2018-10-17T20:50:34.818Z,98814.14
2018-10-17T20:55:37.233Z,98813.89
2018-10-17T21:00:39.648Z,98812.08
2018-10-17T21:05:42.478Z,98811.70
2018-10-17T21:10:44.805Z,98813.63
2018-10-17T21:15:47.117Z,98807.64
2018-10-17T21:20:49.451Z,98809.92
2018-10-17T21:25:51.786Z,98811.75
2018-10-17T21:30:54.124Z,98808.21
2018-10-17T21:35:56.515Z,98817.01
2018-10-17T21:40:58.950Z,98822.34
2018-10-17T21:46:01.289Z,98814.61
2018-10-17T21:51:03.718Z,98816.23
2018-10-17T21:56:06.167Z,98813.50
2018-10-17T22:01:09.065Z,98808.59
2018-10-17T22:06:11.427Z,98812.31
2018-10-17T22:11:13.764Z,98807.84
2018-10-17T22:16:16.090Z,98806.36
2018-10-17T22:21:18.375Z,98807.81
2018-10-17T22:26:20.730Z,98808.66
2018-10-17T22:31:23.056Z,98810.81
2018-10-17T22:36:25.393Z,98814.91
2018-10-17T22:41:27.706Z,98810.75
2018-10-17T22:46:30.117Z,98818.72
2018-10-17T22:51:32.443Z,98816.89
2018-10-17T22:56:34.764Z,98815.74
2018-10-17T23:01:37.588Z,98815.95
2018-10-17T23:06:39.929Z,98818.50
2018-10-17T23:11:42.919Z,98808.71
2018-10-17T23:16:45.333Z,98818.21
2018-10-17T23:21:47.658Z,98813.01
2018-10-17T23:26:49.996Z,98816.56
2018-10-17T23:31:52.323Z,98820.75
2018-10-17T23:36:54.689Z,98817.48
2018-10-17T23:41:57.124Z,98812.70
2018-10-17T23:46:59.535Z,98819.42
2018-10-17T23:52:01.850Z,98816.25
2018-10-17T23:57:04.239Z,98817.88
